AirNav   Everest Fuels
 
 1108 users online  

OR75 Brownlee Heliport
Brownlee Village, Oregon, USA

GOING TO BROWNLEE VILLAGE?


FAA INFORMATION EFFECTIVE 25 FEBRUARY 2021

Location

FAA Identifier: OR75
Lat/Long: 44-50-47.0500N 116-53-55.4300W
44-50.784167N 116-53.923833W
44.8464028,-116.8987306
(estimated)
Elevation: 1862 ft. / 568 m (estimated)
Variation: 18E (1985)
From city: 1 mile S of BROWNLEE VILLAGE, OR
Time zone: UTC -8 (UTC -7 during Daylight Saving Time)
Zip code: 97840

Heliport Operations

Heliport use: Private use. Permission required prior to landing
Activation date: 11/1989
Control tower: no
ARTCC: SALT LAKE CITY CENTER
FSS: MC MINNVILLE FLIGHT SERVICE STATION
Attendance: UNATNDD
Wind indicator: yes
Segmented circle: no

Nearby radio navigation aids

VOR radial/distance  VOR name  Freq  Var
DNJr260/29.9DONNELLY VOR/DME116.2019E
BKEr069/38.7BAKER CITY VOR/DME115.3020E

Heliport Services

Runway Information

Helipad H1

Dimensions: 100 x 60 ft. / 30 x 18 m
Surface: concrete/gravel
Traffic pattern: leftleft

Heliport Ownership and Management from official FAA records

Ownership: Privately-owned
Owner: IDAHO POWER COMPANY
PO BOX 70
BOISE, ID 83707
Phone 541-785-3323
Manager: RICK SIMPSON
PO BOX 139
OXBOW, OR 97840
Phone (541) 785-7200
ALSO ROBERT WICKHAM 541-785-3311

Additional Remarks

A52-H1 20' POLE 100' N.
FOR CD CTC SALT LAKE ARTCC AT 801-320-2568.

Instrument Procedures

There are no published instrument procedures at OR75.

Some nearby airports with instrument procedures:

KMYL - Mc Call Municipal Airport (34 nm E)
S87 - Weiser Municipal Airport (39 nm S)
KBKE - Baker City Municipal Airport (39 nm W)
KONO - Ontario Municipal Airport (50 nm S)
KLGD - La Grande/Union County Airport (54 nm NW)
 
Loc | Ops | Rwys | IFR | FBO | Links
Com | Nav | Svcs | Stats | Notes
Area around OR75 (Brownlee Heliport)
 
Road maps at: MapQuest Bing Google
 
Aerial photo
WARNING: Photo may not be current or correct
Aerial photo of OR75 (Brownlee Heliport)
Do you have a better or more recent aerial photo of Brownlee Heliport that you would like to share? If so, please send us your photo.

 
Sectional chart

 
Airport distance calculator
Flying to Brownlee Heliport? Find the distance to fly.

From to OR75

Sunrise and sunset
Times for 01-Mar-2021
 Local
(UTC-8)
 Zulu
(UTC)
Morning civil twilight05:5713:57
Sunrise06:2614:26
Sunset17:3401:34
Evening civil twilight18:0302:03

Current date and time
Zulu (UTC)  01-Mar-2021 14:20:07
Local (UTC-8)  01-Mar-2021 06:20:07
 
METAR
KMYL 
34nm E 
011351Z AUTO 00000KT 10SM CLR M13/M15 A3022 RMK AO2 SLP294 T11281150
KJSY 
34nm NW 
011355Z AUTO 00000KT 10SM SCT001 M12/M13 A3015 RMK AO2 T11171134
KBKE 
39nm W 
011353Z AUTO 13004KT 10SM CLR M02/M07 A3025 RMK AO2 SLP269 T10171072
TAF
KMYL 
34nm E 
282050Z 2821/0118 VRB04KT P6SM OVC030 FM010200 VRB04KT P6SM SCT200
KBKE 
39nm W 
010520Z 0106/0206 11007KT P6SM SKC FM011900 12010G18KT P6SM FEW200 FM020100 11006KT P6SM FEW200
NOTAMs
Click for the latest NOTAMs
NOTAMs are issued by the DoD/FAA and will open in a separate window not controlled by AirNav.

 

 
 

Would you like to see your business listed on this page?

 If your business provides an interesting product or service to pilots, flight crews, aircraft, or users of the Brownlee Heliport, you should consider listing it here.  To start the listing process, click on the button below
 
Add a business
 

Other Pages about Brownlee Heliport

Update a link
 
Copyright © AirNav, LLC. All rights reserved. Privacy Policy  Contact